Woxall, Pennsylvania
Current Conditions -  °F | °C
As of 12:54 PM on Friday 28 Nov 2014 (Local Time) from KPTW Reporting Station
Overcast Overcast  
Wind Chill: 25°   Ceiling: 5000
Heat Index: 33°   Visibility: 10mi
Dew Point: 17°   Wind: 10mph
Humidity: 52%   Direction: 320°NW
Pressure: 30.22"   Gusts: NA
Location:  40.31°N, 75.45°W
Report Text: KPTW 281754Z AUTO 32009KT 10SM OVC050 01/M08 A3022 RMK AO2 SLP235 60000 T00061083 10017 21022 58009
Loading
Personal Weather Stations






























Interactive Weather Map New forecast layout! Learn more

10-Day Weather Forecast

Advertisements
Track Severe Weather on mobile